createdAt,value
2024-02-08T00:01:25.615Z,48.85
2024-02-08T00:06:17.545Z,51.72
2024-02-08T00:11:09.457Z,55.55
2024-02-08T00:16:02.078Z,52.45
2024-02-08T00:20:54.049Z,49.75
2024-02-08T00:25:49.125Z,47.47
2024-02-08T00:30:41.993Z,54.58
2024-02-08T00:35:35.350Z,53.40
2024-02-08T00:40:27.706Z,60.35
2024-02-08T00:45:29.706Z,58.13
2024-02-08T00:50:22.673Z,50.97
2024-02-08T00:55:17.270Z,57.92
2024-02-08T01:00:09.917Z,63.35
2024-02-08T01:05:01.862Z,48.28
2024-02-08T01:09:53.747Z,47.88
2024-02-08T01:14:45.527Z,51.75
2024-02-08T01:19:37.769Z,55.60
2024-02-08T01:24:30.227Z,42.08
2024-02-08T01:29:25.915Z,46.78
2024-02-08T01:34:17.959Z,47.42
2024-02-08T01:39:14.547Z,48.17
2024-02-08T01:44:09.095Z,46.05
2024-02-08T01:49:00.932Z,49.08
2024-02-08T01:53:53.121Z,43.25
2024-02-08T01:58:46.358Z,41.03
2024-02-08T02:03:47.889Z,39.40
2024-02-08T02:08:40.060Z,40.22
2024-02-08T02:13:31.937Z,38.22
2024-02-08T02:18:23.831Z,38.17
2024-02-08T02:23:20.243Z,42.08
2024-02-08T02:28:12.396Z,47.35
2024-02-08T02:33:07.752Z,45.05
2024-02-08T02:38:04.565Z,55.08
2024-02-08T02:42:56.689Z,53.03
2024-02-08T02:47:49.742Z,53.00
2024-02-08T02:52:46.934Z,48.80
2024-02-08T02:57:44.090Z,51.03
2024-02-08T03:02:39.569Z,56.65
2024-02-08T03:07:33.961Z,50.13
2024-02-08T03:12:25.837Z,44.22
2024-02-08T03:17:17.710Z,49.78
2024-02-08T03:22:10.024Z,40.42
2024-02-08T03:27:01.930Z,43.85
2024-02-08T03:31:54.341Z,36.15
2024-02-08T03:36:50.665Z,43.95
2024-02-08T03:41:42.451Z,41.83
2024-02-08T03:46:34.387Z,41.83
2024-02-08T03:51:26.401Z,38.30
2024-02-08T03:56:18.265Z,40.13
2024-02-08T04:01:12.215Z,40.10
2024-02-08T04:06:17.933Z,37.63
2024-02-08T04:11:28.429Z,31.65
2024-02-08T04:16:40.936Z,39.20
2024-02-08T04:21:51.711Z,27.98
2024-02-08T04:27:02.328Z,33.83
2024-02-08T04:32:12.715Z,42.85
2024-02-08T04:37:23.148Z,39.03
2024-02-08T04:42:33.418Z,47.63
2024-02-08T04:47:43.992Z,40.53
2024-02-08T04:52:54.705Z,38.25
2024-02-08T04:57:46.520Z,37.33
2024-02-08T05:02:38.326Z,38.72
2024-02-08T05:07:30.124Z,34.13
2024-02-08T05:12:22.525Z,38.72
2024-02-08T05:17:15.300Z,40.90
2024-02-08T05:22:07.141Z,35.58
2024-02-08T05:26:59.304Z,42.92
2024-02-08T05:31:51.555Z,40.05
2024-02-08T05:36:44.655Z,39.83
2024-02-08T05:41:36.546Z,34.95
2024-02-08T05:46:31.327Z,54.22
2024-02-08T05:51:26.883Z,40.75
2024-02-08T05:56:22.908Z,35.60
2024-02-08T06:01:18.401Z,33.50
2024-02-08T06:06:17.524Z,36.72
2024-02-08T06:11:24.481Z,35.72
2024-02-08T06:16:28.115Z,32.05
2024-02-08T06:21:26.764Z,30.65
2024-02-08T06:26:18.608Z,34.58
2024-02-08T06:31:16.422Z,30.17
2024-02-08T06:36:09.078Z,32.67
2024-02-08T06:41:00.944Z,32.25
2024-02-08T06:45:54.095Z,31.88
2024-02-08T06:51:04.520Z,30.08
2024-02-08T06:56:15.101Z,30.35
2024-02-08T07:01:25.583Z,30.02
2024-02-08T07:06:36.069Z,27.48
2024-02-08T07:11:47.243Z,24.27
2024-02-08T07:16:57.620Z,26.20
2024-02-08T07:22:08.211Z,30.75
2024-02-08T07:27:18.853Z,31.17
2024-02-08T07:32:29.353Z,26.70
2024-02-08T07:37:27.286Z,32.22
2024-02-08T07:42:31.078Z,28.65
2024-02-08T07:47:26.659Z,24.15
2024-02-08T07:52:23.031Z,27.17
2024-02-08T07:57:14.886Z,24.10
2024-02-08T08:02:13.777Z,26.75
2024-02-08T08:07:11.280Z,26.85
2024-02-08T08:12:07.937Z,27.33
2024-02-08T08:17:09.811Z,28.20
2024-02-08T08:22:20.803Z,26.52
2024-02-08T08:27:28.514Z,29.63
2024-02-08T08:32:32.715Z,29.17
2024-02-08T08:37:43.490Z,28.85
2024-02-08T08:42:35.608Z,29.25
2024-02-08T08:47:29.988Z,30.90
2024-02-08T08:52:25.633Z,31.17
2024-02-08T08:57:17.531Z,36.35
2024-02-08T09:02:10.632Z,32.45
2024-02-08T09:07:12.995Z,44.83
2024-02-08T09:12:06.995Z,39.03
2024-02-08T09:16:59.794Z,43.15
2024-02-08T09:21:54.363Z,40.55
2024-02-08T09:27:14.975Z,32.50
2024-02-08T09:32:20.251Z,38.05
2024-02-08T09:37:12.596Z,31.75
2024-02-08T09:42:09.359Z,36.00
2024-02-08T09:47:05.942Z,41.47
2024-02-08T09:52:04.765Z,36.95
2024-02-08T09:57:05.009Z,35.78
2024-02-08T10:01:57.893Z,35.08
2024-02-08T10:06:57.200Z,32.33
2024-02-08T10:11:59.116Z,38.65
2024-02-08T10:16:51.931Z,35.25
2024-02-08T10:21:45.779Z,30.60
2024-02-08T10:26:41.082Z,35.83
2024-02-08T10:31:38.828Z,33.72
2024-02-08T10:36:36.846Z,31.30
2024-02-08T10:41:37.419Z,28.95
2024-02-08T10:46:43.777Z,32.90
2024-02-08T10:51:38.770Z,28.33
2024-02-08T10:56:42.554Z,39.22
2024-02-08T11:01:50.932Z,46.83
2024-02-08T11:06:56.239Z,35.97
2024-02-08T11:12:23.391Z,29.33
2024-02-08T11:17:22.012Z,33.88
2024-02-08T11:22:26.343Z,36.42
2024-02-08T11:27:29.298Z,43.15
2024-02-08T11:32:24.007Z,43.03
2024-02-08T11:37:24.521Z,38.85
2024-02-08T11:42:18.574Z,38.53
2024-02-08T11:47:19.774Z,35.63
2024-02-08T11:52:21.069Z,45.40
2024-02-08T11:57:17.043Z,40.08
2024-02-08T12:02:11.164Z,31.43
2024-02-08T12:07:09.448Z,36.92
2024-02-08T12:12:05.381Z,34.70
2024-02-08T12:17:01.187Z,40.38
2024-02-08T12:21:58.200Z,38.50
2024-02-08T12:26:55.467Z,38.45
2024-02-08T12:31:49.616Z,34.45
2024-02-08T12:36:45.180Z,36.17
2024-02-08T12:41:39.743Z,45.63
2024-02-08T12:46:32.926Z,45.83
2024-02-08T12:51:24.880Z,36.40
2024-02-08T12:56:20.373Z,40.67
2024-02-08T13:01:16.461Z,38.60
2024-02-08T13:06:13.330Z,36.30
2024-02-08T13:11:05.930Z,34.78
2024-02-08T13:16:07.117Z,36.85
2024-02-08T13:21:00.259Z,47.85
2024-02-08T13:25:59.361Z,35.15
2024-02-08T13:30:53.680Z,42.72
2024-02-08T13:35:46.574Z,47.30
2024-02-08T13:40:44.841Z,38.75
2024-02-08T13:50:33.009Z,41.40
2024-02-08T14:00:28.730Z,43.85
2024-02-08T14:05:25.030Z,44.88
2024-02-08T14:10:19.038Z,54.83
2024-02-08T14:15:10.883Z,39.85
2024-02-08T14:20:05.932Z,53.15
2024-02-08T14:24:59.805Z,44.78
2024-02-08T14:29:52.101Z,46.83
2024-02-08T14:34:45.036Z,50.58
2024-02-08T14:39:38.281Z,44.83
2024-02-08T14:44:42.603Z,41.03
2024-02-08T14:49:57.476Z,39.40
2024-02-08T14:54:50.094Z,43.55
2024-02-08T14:59:52.699Z,49.50
2024-02-08T15:04:54.100Z,45.75
2024-02-08T15:09:49.507Z,41.55
2024-02-08T15:14:43.619Z,43.42
2024-02-08T15:19:48.995Z,45.53
2024-02-08T15:24:48.051Z,40.10
2024-02-08T15:29:46.968Z,54.05
2024-02-08T15:34:44.726Z,44.17
2024-02-08T15:39:37.071Z,49.17
2024-02-08T15:44:36.298Z,45.38
2024-02-08T15:49:30.539Z,44.85
2024-02-08T15:54:24.782Z,50.92
2024-02-08T15:59:17.157Z,41.65
2024-02-08T16:04:29.215Z,49.95
2024-02-08T16:09:28.239Z,50.00
2024-02-08T16:14:27.492Z,44.00
2024-02-08T16:19:24.983Z,46.35
2024-02-08T16:24:19.520Z,46.75
2024-02-08T16:29:18.019Z,44.05
2024-02-08T16:34:24.446Z,41.47
2024-02-08T16:39:16.546Z,35.50
2024-02-08T16:44:14.505Z,43.53
2024-02-08T16:49:08.174Z,44.05
2024-02-08T16:54:18.866Z,40.40
2024-02-08T16:59:16.885Z,39.63
2024-02-08T17:04:11.662Z,42.53
2024-02-08T17:09:12.396Z,45.05
2024-02-08T17:14:05.107Z,48.95
2024-02-08T17:19:15.790Z,47.75
2024-02-08T17:24:10.097Z,50.85
2024-02-08T17:29:20.705Z,51.83
2024-02-08T17:34:23.539Z,51.30
2024-02-08T17:39:26.217Z,43.50
2024-02-08T17:44:18.500Z,51.03
2024-02-08T17:49:17.463Z,45.00
2024-02-08T17:54:09.665Z,40.38
2024-02-08T17:59:09.686Z,46.42
2024-02-08T18:04:03.836Z,51.08
2024-02-08T18:08:57.862Z,51.25
2024-02-08T18:13:50.957Z,56.95
2024-02-08T18:18:42.919Z,41.42
2024-02-08T18:23:35.060Z,58.60
2024-02-08T18:28:27.193Z,50.10
2024-02-08T18:33:20.625Z,49.22
2024-02-08T18:38:14.036Z,50.80
2024-02-08T18:43:05.928Z,49.08
2024-02-08T18:48:02.470Z,59.05
2024-02-08T18:52:54.385Z,56.97
2024-02-08T18:57:47.505Z,45.97
2024-02-08T19:02:43.314Z,45.00
2024-02-08T19:07:35.380Z,50.67
2024-02-08T19:12:27.371Z,50.90
2024-02-08T19:17:21.150Z,60.03
2024-02-08T19:22:24.715Z,53.13
2024-02-08T19:27:16.813Z,49.10
2024-02-08T19:32:15.279Z,63.92
2024-02-08T19:42:03.685Z,52.17
2024-02-08T19:47:03.971Z,49.45
2024-02-08T19:52:01.125Z,61.83
2024-02-08T19:56:52.928Z,62.15
2024-02-08T20:01:46.094Z,58.30
2024-02-08T20:06:37.984Z,79.30
2024-02-08T20:11:30.464Z,61.58
2024-02-08T20:16:26.911Z,68.18
2024-02-08T20:21:20.808Z,72.97
2024-02-08T20:26:13.527Z,76.22
2024-02-08T20:31:09.202Z,74.63
2024-02-08T20:36:10.077Z,76.82
2024-02-08T20:41:02.927Z,74.18
2024-02-08T20:45:55.891Z,77.18
2024-02-08T20:50:52.260Z,73.15
2024-02-08T20:55:45.910Z,70.32
2024-02-08T21:01:01.078Z,72.40
2024-02-08T21:05:56.219Z,66.40
2024-02-08T21:10:49.043Z,62.13
2024-02-08T21:15:44.999Z,65.47
2024-02-08T21:20:36.809Z,65.50
2024-02-08T21:25:28.560Z,67.97
2024-02-08T21:30:22.152Z,64.35
2024-02-08T21:35:19.657Z,61.10
2024-02-08T21:40:12.024Z,74.00
2024-02-08T21:45:04.336Z,72.05
2024-02-08T21:49:56.702Z,70.80
2024-02-08T21:54:48.527Z,86.75
2024-02-08T21:59:40.354Z,87.35
2024-02-08T22:04:32.317Z,73.07
2024-02-08T22:09:24.136Z,77.57
2024-02-08T22:14:20.878Z,75.90
2024-02-08T22:19:15.803Z,84.80
2024-02-08T22:24:09.529Z,70.40
2024-02-08T22:29:02.811Z,99.47
2024-02-08T22:33:56.102Z,77.30
2024-02-08T22:38:48.154Z,84.30
2024-02-08T22:43:40.117Z,81.45
2024-02-08T22:48:31.980Z,78.28
2024-02-08T22:53:23.691Z,93.50
2024-02-08T22:58:15.483Z,77.93
2024-02-08T23:03:11.342Z,102.35
2024-02-08T23:08:06.187Z,92.32
2024-02-08T23:12:57.982Z,91.97
2024-02-08T23:17:56.034Z,91.82
2024-02-08T23:22:49.003Z,108.83
2024-02-08T23:27:40.853Z,117.90
2024-02-08T23:32:36.894Z,117.50
2024-02-08T23:37:28.996Z,120.32
2024-02-08T23:42:22.121Z,107.93
2024-02-08T23:47:18.935Z,122.40
2024-02-08T23:52:13.687Z,110.57
2024-02-08T23:57:05.729Z,118.95
